createdAt,value
2019-01-14T00:00:06.426Z,90.02
2019-01-14T00:02:38.408Z,89.54
2019-01-14T00:05:10.443Z,89.48
2019-01-14T00:07:42.270Z,87.93
2019-01-14T00:10:14.155Z,88.96
2019-01-14T00:12:45.901Z,88.72
2019-01-14T00:15:17.817Z,88.64
2019-01-14T00:17:49.962Z,88.72
2019-01-14T00:20:21.847Z,87.68
2019-01-14T00:22:53.602Z,87.77
2019-01-14T00:25:25.439Z,89.03
2019-01-14T00:27:57.254Z,88.28
2019-01-14T00:30:29.433Z,87.90
2019-01-14T00:33:01.403Z,88.00
2019-01-14T00:35:33.305Z,87.87
2019-01-14T00:38:05.219Z,87.86
2019-01-14T00:40:37.355Z,89.67
2019-01-14T00:43:10.239Z,89.17
2019-01-14T00:45:42.052Z,88.37
2019-01-14T00:48:13.973Z,88.44
2019-01-14T00:50:45.710Z,88.15
2019-01-14T00:53:17.539Z,89.16
2019-01-14T00:55:49.357Z,88.98
2019-01-14T00:58:21.138Z,89.19
2019-01-14T01:00:52.947Z,88.85
2019-01-14T01:03:25.031Z,89.71
2019-01-14T01:05:56.856Z,89.64
2019-01-14T01:08:28.688Z,89.67
2019-01-14T01:11:00.590Z,90.25
2019-01-14T01:13:32.407Z,90.62
2019-01-14T01:16:04.282Z,89.54
2019-01-14T01:18:36.192Z,89.92
2019-01-14T01:21:08.015Z,90.08
2019-01-14T01:23:40.050Z,90.06
2019-01-14T01:26:11.945Z,89.99
2019-01-14T01:28:43.835Z,89.45
2019-01-14T01:31:15.725Z,89.93
2019-01-14T01:33:47.549Z,90.51
2019-01-14T01:36:19.368Z,90.05
2019-01-14T01:38:51.209Z,90.01
2019-01-14T01:41:23.134Z,89.50
2019-01-14T01:43:54.879Z,90.03
2019-01-14T01:46:26.677Z,89.83
2019-01-14T01:48:58.501Z,89.69
2019-01-14T01:51:30.266Z,89.61
2019-01-14T01:54:02.367Z,90.43
2019-01-14T01:56:34.288Z,89.85
2019-01-14T01:59:06.193Z,89.82
2019-01-14T02:01:38.275Z,89.57
2019-01-14T02:04:10.026Z,89.02
2019-01-14T02:06:41.843Z,89.69
2019-01-14T02:09:13.671Z,89.28
2019-01-14T02:11:45.589Z,89.22
2019-01-14T02:14:17.630Z,89.54
2019-01-14T02:16:49.321Z,88.99
2019-01-14T02:19:21.169Z,89.27
2019-01-14T02:21:53.253Z,88.99
2019-01-14T02:24:25.019Z,89.04
2019-01-14T02:26:56.822Z,89.24
2019-01-14T02:29:28.647Z,89.34
2019-01-14T02:32:00.729Z,89.28
2019-01-14T02:34:32.486Z,88.38
2019-01-14T02:37:04.372Z,88.80
2019-01-14T02:39:36.451Z,88.40
2019-01-14T02:42:09.262Z,88.45
2019-01-14T02:44:41.014Z,88.00
2019-01-14T02:47:12.745Z,88.00
2019-01-14T02:49:44.687Z,87.85
2019-01-14T02:52:16.565Z,87.35
2019-01-14T02:54:48.417Z,87.17
2019-01-14T02:57:20.231Z,87.29
2019-01-14T02:59:52.052Z,87.31
2019-01-14T03:02:23.947Z,87.02
2019-01-14T03:04:55.774Z,87.13
2019-01-14T03:07:27.599Z,87.31
2019-01-14T03:09:59.491Z,87.17
2019-01-14T03:12:31.251Z,87.21
2019-01-14T03:15:03.061Z,86.96
2019-01-14T03:17:34.990Z,86.98
2019-01-14T03:20:09.640Z,87.03
2019-01-14T03:22:41.865Z,87.08
2019-01-14T03:25:14.912Z,86.90
2019-01-14T03:27:46.873Z,87.02
2019-01-14T03:30:20.240Z,87.22
2019-01-14T03:32:52.127Z,86.85
2019-01-14T03:35:23.946Z,86.84
2019-01-14T03:37:55.779Z,87.03
2019-01-14T03:40:27.671Z,87.33
2019-01-14T03:42:59.484Z,87.07
2019-01-14T03:45:31.408Z,87.24
2019-01-14T03:48:03.570Z,87.30
2019-01-14T03:50:35.471Z,87.32
2019-01-14T03:53:07.272Z,87.48
2019-01-14T03:55:39.181Z,87.59
2019-01-14T03:58:11.001Z,87.23
2019-01-14T04:00:42.894Z,87.50
2019-01-14T04:03:14.623Z,87.43
2019-01-14T04:05:46.670Z,87.36
2019-01-14T04:08:18.557Z,87.43
2019-01-14T04:10:50.618Z,87.74
2019-01-14T04:13:22.518Z,87.53
2019-01-14T04:15:54.338Z,87.78
2019-01-14T04:18:26.162Z,88.04
2019-01-14T04:20:58.330Z,87.43
2019-01-14T04:23:30.515Z,87.45
2019-01-14T04:26:02.403Z,87.77
2019-01-14T04:28:34.852Z,87.84
2019-01-14T04:31:06.674Z,88.25
2019-01-14T04:33:38.571Z,87.81
2019-01-14T04:36:10.534Z,87.76
2019-01-14T04:38:42.737Z,88.01
2019-01-14T04:41:14.778Z,87.99
2019-01-14T04:43:46.579Z,88.26
2019-01-14T04:46:18.396Z,88.15
2019-01-14T04:48:50.377Z,88.83
2019-01-14T04:51:22.380Z,88.87
2019-01-14T04:53:54.198Z,88.54
2019-01-14T04:56:26.274Z,88.33
2019-01-14T04:58:58.390Z,88.23
2019-01-14T05:01:30.791Z,88.42
2019-01-14T05:04:02.808Z,88.51
2019-01-14T05:06:34.780Z,89.12
2019-01-14T05:09:09.403Z,89.19
2019-01-14T05:11:41.405Z,89.32
2019-01-14T05:14:13.286Z,89.65
2019-01-14T05:16:45.223Z,89.83
2019-01-14T05:19:16.963Z,89.99
2019-01-14T05:21:48.846Z,90.13
2019-01-14T05:24:20.578Z,90.17
2019-01-14T05:26:52.298Z,90.01
2019-01-14T05:29:24.138Z,89.77
2019-01-14T05:31:56.562Z,89.88
2019-01-14T05:34:28.438Z,89.97
2019-01-14T05:37:00.221Z,90.24
2019-01-14T05:39:32.055Z,90.03
2019-01-14T05:42:03.925Z,90.30
2019-01-14T05:44:36.677Z,89.79
2019-01-14T05:47:09.659Z,89.76
2019-01-14T05:49:41.656Z,89.79
2019-01-14T05:52:13.541Z,90.11
2019-01-14T05:54:45.352Z,90.23
2019-01-14T05:57:17.101Z,90.24
2019-01-14T05:59:49.130Z,90.36
2019-01-14T06:02:21.025Z,90.19
2019-01-14T06:04:52.833Z,90.11
2019-01-14T06:07:24.637Z,90.81
2019-01-14T06:09:56.365Z,91.05
2019-01-14T06:12:35.572Z,90.22
2019-01-14T06:15:08.540Z,90.22
2019-01-14T06:17:40.413Z,90.16
2019-01-14T06:20:14.554Z,89.92
2019-01-14T06:22:46.439Z,89.87
2019-01-14T06:25:18.682Z,90.40
2019-01-14T06:27:50.535Z,90.42
2019-01-14T06:30:25.474Z,90.77
2019-01-14T06:32:57.299Z,91.01
2019-01-14T06:35:29.233Z,91.73
2019-01-14T06:38:01.172Z,92.46
2019-01-14T06:40:33.037Z,93.29
2019-01-14T06:43:04.924Z,93.29
2019-01-14T06:45:36.902Z,93.75
2019-01-14T06:48:10.011Z,93.70
2019-01-14T06:50:41.854Z,93.53
2019-01-14T06:53:13.716Z,93.97
2019-01-14T06:55:45.730Z,94.01
2019-01-14T06:58:17.565Z,94.26
2019-01-14T07:00:49.301Z,95.08
2019-01-14T07:03:21.188Z,95.09
2019-01-14T07:05:53.123Z,94.77
2019-01-14T07:08:24.859Z,94.66
2019-01-14T07:10:57.009Z,94.18
2019-01-14T07:13:28.805Z,94.85
2019-01-14T07:16:00.517Z,94.89
2019-01-14T07:18:32.254Z,94.34
2019-01-14T07:21:04.048Z,94.11
2019-01-14T07:23:35.979Z,94.17
2019-01-14T07:26:07.973Z,94.03
2019-01-14T07:28:39.948Z,93.74
2019-01-14T07:31:11.895Z,93.92
2019-01-14T07:33:43.906Z,93.62
2019-01-14T07:36:15.940Z,94.14
2019-01-14T07:38:48.003Z,94.34
2019-01-14T07:41:20.000Z,94.21
2019-01-14T07:43:52.226Z,94.26
2019-01-14T07:46:25.327Z,94.56
2019-01-14T07:48:57.091Z,94.50
2019-01-14T07:51:28.935Z,95.24
2019-01-14T07:54:00.687Z,95.11
2019-01-14T07:56:32.776Z,95.04
2019-01-14T07:59:04.723Z,95.27
2019-01-14T08:01:36.516Z,94.94
2019-01-14T08:04:09.475Z,94.26
2019-01-14T08:06:41.274Z,94.35
2019-01-14T08:09:13.082Z,94.17
2019-01-14T08:11:45.147Z,94.12
2019-01-14T08:14:17.024Z,93.94
2019-01-14T08:16:48.986Z,94.10
2019-01-14T08:19:20.710Z,93.58
2019-01-14T08:21:52.575Z,93.92
2019-01-14T08:24:24.375Z,93.92
2019-01-14T08:26:56.179Z,94.02
2019-01-14T08:29:27.979Z,94.31
2019-01-14T08:31:59.838Z,94.09
2019-01-14T08:34:31.636Z,94.04
2019-01-14T08:37:03.568Z,94.43
2019-01-14T08:39:35.373Z,94.35
2019-01-14T08:42:08.113Z,94.43
2019-01-14T08:44:41.949Z,94.61
2019-01-14T08:47:13.699Z,94.99
2019-01-14T08:49:45.865Z,94.29
2019-01-14T08:52:17.665Z,94.37
2019-01-14T08:54:49.566Z,93.81
2019-01-14T08:57:21.790Z,94.16
2019-01-14T08:59:53.593Z,94.01
2019-01-14T09:02:25.470Z,94.05
2019-01-14T09:04:57.296Z,94.74
2019-01-14T09:07:29.025Z,94.15
2019-01-14T09:10:00.764Z,94.55
2019-01-14T09:12:33.627Z,94.45
2019-01-14T09:15:07.624Z,95.09
2019-01-14T09:17:39.566Z,95.00
2019-01-14T09:20:15.708Z,94.90
2019-01-14T09:22:47.706Z,94.73
2019-01-14T09:25:19.776Z,95.32
2019-01-14T09:27:52.808Z,96.13
2019-01-14T09:30:26.397Z,95.74
2019-01-14T09:32:58.217Z,95.74
2019-01-14T09:35:30.270Z,96.66
2019-01-14T09:38:02.096Z,96.02
2019-01-14T09:40:34.323Z,96.55
2019-01-14T09:43:06.197Z,96.74
2019-01-14T09:45:38.093Z,95.81
2019-01-14T09:48:10.194Z,95.55
2019-01-14T09:50:41.930Z,96.10
2019-01-14T09:53:13.739Z,94.71
2019-01-14T09:55:45.722Z,95.23
2019-01-14T09:58:17.452Z,94.64
2019-01-14T10:00:49.337Z,94.66
2019-01-14T10:03:21.141Z,94.86
2019-01-14T10:05:59.072Z,95.74
2019-01-14T10:08:30.986Z,95.75
2019-01-14T10:11:03.061Z,95.12
2019-01-14T10:13:35.054Z,96.09
2019-01-14T10:16:07.050Z,95.37
2019-01-14T10:18:38.859Z,95.43
2019-01-14T10:21:10.904Z,94.97
2019-01-14T10:23:42.787Z,95.87
2019-01-14T10:26:16.179Z,96.55
2019-01-14T10:28:48.084Z,95.38
2019-01-14T10:31:20.165Z,95.25
2019-01-14T10:33:52.018Z,94.35
2019-01-14T10:36:23.755Z,94.24
2019-01-14T10:38:55.481Z,93.57
2019-01-14T10:41:27.229Z,93.99
2019-01-14T10:43:59.037Z,93.57
2019-01-14T10:46:30.917Z,93.98
2019-01-14T10:49:06.604Z,93.69
2019-01-14T10:51:36.314Z,93.53
2019-01-14T10:54:08.219Z,94.54
2019-01-14T10:56:44.100Z,94.66
2019-01-14T10:59:14.459Z,94.28
2019-01-14T11:01:46.277Z,94.01
2019-01-14T11:04:18.079Z,94.06
2019-01-14T11:06:50.224Z,94.90
2019-01-14T11:09:22.272Z,93.88
2019-01-14T11:11:54.171Z,94.21
2019-01-14T11:14:26.964Z,94.44
2019-01-14T11:16:58.784Z,93.95
2019-01-14T11:19:30.715Z,94.47
2019-01-14T11:22:02.523Z,94.50
2019-01-14T11:24:52.841Z,94.11
2019-01-14T11:27:24.707Z,94.42
2019-01-14T11:29:56.520Z,94.60
2019-01-14T11:32:28.391Z,94.58
2019-01-14T11:35:02.948Z,94.83
2019-01-14T11:37:34.797Z,95.19
2019-01-14T11:40:16.189Z,94.73
2019-01-14T11:42:49.192Z,95.15
2019-01-14T11:45:21.193Z,95.37
2019-01-14T11:47:53.211Z,95.42
2019-01-14T11:50:25.218Z,95.26
2019-01-14T11:52:57.260Z,95.67
2019-01-14T11:55:29.283Z,96.10
2019-01-14T11:58:01.258Z,96.27
2019-01-14T12:00:36.803Z,95.46
2019-01-14T12:03:08.530Z,95.16
2019-01-14T12:05:40.662Z,95.40
2019-01-14T12:08:12.563Z,95.35
2019-01-14T12:10:44.536Z,95.42
2019-01-14T12:13:16.422Z,95.20
2019-01-14T12:15:48.231Z,94.91
2019-01-14T12:18:20.041Z,95.20
2019-01-14T12:20:51.836Z,94.92
2019-01-14T12:23:23.724Z,95.86
2019-01-14T12:25:55.463Z,94.78
2019-01-14T12:28:27.278Z,95.21
2019-01-14T12:30:59.158Z,95.41
2019-01-14T12:33:30.980Z,94.94
2019-01-14T12:36:02.772Z,93.85
2019-01-14T12:38:34.532Z,94.39
2019-01-14T12:41:06.403Z,94.08
2019-01-14T12:43:38.152Z,94.31
2019-01-14T12:46:10.402Z,94.96
2019-01-14T12:48:42.222Z,95.11
2019-01-14T12:51:14.030Z,95.19
2019-01-14T12:53:45.782Z,94.67
2019-01-14T12:56:17.548Z,95.04
2019-01-14T12:58:49.296Z,95.26
2019-01-14T13:01:21.121Z,94.67
2019-01-14T13:03:52.875Z,95.06
2019-01-14T13:06:24.597Z,95.08
2019-01-14T13:08:56.419Z,94.75
2019-01-14T13:11:28.206Z,94.75
2019-01-14T13:14:00.022Z,94.57
2019-01-14T13:16:31.841Z,94.84
2019-01-14T13:19:03.659Z,95.80
2019-01-14T13:21:35.728Z,95.71
2019-01-14T13:24:07.566Z,95.53
2019-01-14T13:26:39.293Z,95.67
2019-01-14T13:29:15.164Z,95.61
2019-01-14T13:31:44.652Z,95.50
2019-01-14T13:34:16.487Z,94.81
2019-01-14T13:36:48.288Z,95.32
2019-01-14T13:39:20.025Z,95.55
2019-01-14T13:41:51.896Z,95.60
2019-01-14T13:44:23.797Z,95.45
2019-01-14T13:46:55.791Z,95.30
2019-01-14T13:49:27.706Z,96.01
2019-01-14T13:51:59.507Z,95.11
2019-01-14T13:54:31.659Z,95.12
2019-01-14T13:57:03.672Z,95.23
2019-01-14T13:59:35.838Z,95.78
2019-01-14T14:02:07.730Z,95.35
2019-01-14T14:04:39.554Z,95.27
2019-01-14T14:07:11.690Z,95.71
2019-01-14T14:09:43.527Z,95.14
2019-01-14T14:12:15.421Z,94.71
2019-01-14T14:14:47.249Z,94.96
2019-01-14T14:17:19.081Z,95.05
2019-01-14T14:19:50.920Z,94.31
2019-01-14T14:22:22.665Z,94.46
2019-01-14T14:24:55.467Z,94.39
2019-01-14T14:27:27.279Z,94.42
2019-01-14T14:29:59.293Z,94.07
2019-01-14T14:32:31.344Z,94.44
2019-01-14T14:35:03.421Z,95.01
2019-01-14T14:37:35.262Z,96.48
2019-01-14T14:40:08.898Z,96.07
2019-01-14T14:42:40.783Z,94.90
2019-01-14T14:45:12.970Z,93.27
2019-01-14T14:47:44.908Z,94.62
2019-01-14T14:50:17.613Z,93.89
2019-01-14T14:52:49.939Z,94.48
2019-01-14T14:55:21.777Z,93.52
2019-01-14T14:57:53.729Z,94.03
2019-01-14T15:00:26.711Z,94.46
2019-01-14T15:02:58.756Z,92.71
2019-01-14T15:05:30.653Z,89.97
2019-01-14T15:08:02.571Z,87.78
2019-01-14T15:10:34.393Z,85.92
2019-01-14T15:13:06.336Z,84.76
2019-01-14T15:15:38.461Z,87.99
2019-01-14T15:18:11.258Z,89.50
2019-01-14T15:20:43.160Z,91.29
2019-01-14T15:23:14.981Z,91.99
2019-01-14T15:25:47.095Z,92.31
2019-01-14T15:28:18.923Z,91.76
2019-01-14T15:30:50.686Z,91.78
2019-01-14T15:33:22.561Z,92.16
2019-01-14T15:35:54.408Z,91.34
2019-01-14T15:38:26.301Z,91.08
2019-01-14T15:40:58.148Z,89.65
2019-01-14T15:43:29.977Z,89.14
2019-01-14T15:46:01.922Z,88.83
2019-01-14T15:48:33.767Z,87.93
2019-01-14T15:51:05.681Z,86.50
2019-01-14T15:53:37.437Z,86.60
2019-01-14T15:56:09.889Z,85.83
2019-01-14T15:58:41.798Z,85.19
2019-01-14T16:01:13.645Z,87.10
2019-01-14T16:03:45.466Z,88.45
2019-01-14T16:06:17.279Z,89.17
2019-01-14T16:08:49.267Z,89.76
2019-01-14T16:11:21.678Z,90.77
2019-01-14T16:13:53.491Z,91.16
2019-01-14T16:16:25.743Z,91.02
2019-01-14T16:18:57.938Z,90.99
2019-01-14T16:21:29.760Z,91.25
2019-01-14T16:24:01.709Z,91.34
2019-01-14T16:26:33.582Z,91.72
2019-01-14T16:29:05.418Z,92.28
2019-01-14T16:31:37.185Z,91.44
2019-01-14T16:34:09.341Z,91.07
2019-01-14T16:36:41.251Z,91.14
2019-01-14T16:39:13.055Z,92.08
2019-01-14T16:41:44.892Z,91.67
2019-01-14T16:44:16.700Z,91.52
2019-01-14T16:46:48.588Z,91.49
2019-01-14T16:49:20.481Z,89.92
2019-01-14T16:51:52.639Z,88.87
2019-01-14T16:54:24.387Z,88.09
2019-01-14T16:56:56.145Z,88.50
2019-01-14T16:59:27.963Z,88.31
2019-01-14T17:02:00.033Z,87.55
2019-01-14T17:04:31.858Z,87.07
2019-01-14T17:07:03.962Z,87.32
2019-01-14T17:09:35.832Z,88.23
2019-01-14T17:12:08.104Z,88.37
2019-01-14T17:14:39.938Z,88.85
2019-01-14T17:17:11.771Z,89.05
2019-01-14T17:19:43.575Z,88.46
2019-01-14T17:22:15.526Z,88.46
2019-01-14T17:24:47.252Z,88.50
2019-01-14T17:27:19.326Z,87.86
2019-01-14T17:29:51.183Z,87.65
2019-01-14T17:32:23.087Z,87.96
2019-01-14T17:34:54.900Z,87.32
2019-01-14T17:37:26.649Z,87.45
2019-01-14T17:39:58.388Z,87.65
2019-01-14T17:42:30.356Z,87.23
2019-01-14T17:45:02.097Z,88.14
2019-01-14T17:47:33.925Z,87.85
2019-01-14T17:50:08.561Z,88.10
2019-01-14T17:52:40.382Z,89.32
2019-01-14T17:55:12.276Z,89.10
2019-01-14T17:57:44.189Z,89.18
2019-01-14T18:00:23.095Z,89.63
2019-01-14T18:02:55.065Z,89.64
2019-01-14T18:05:26.967Z,89.82
2019-01-14T18:07:58.792Z,89.76
2019-01-14T18:10:30.562Z,89.91
2019-01-14T18:13:02.370Z,90.23
2019-01-14T18:15:34.280Z,91.03
2019-01-14T18:18:06.206Z,89.93
2019-01-14T18:20:37.932Z,90.00
2019-01-14T18:23:09.748Z,88.72
2019-01-14T18:25:41.497Z,87.83
2019-01-14T18:28:13.376Z,88.91
2019-01-14T18:30:45.241Z,87.56
2019-01-14T18:33:16.995Z,88.11
2019-01-14T18:35:48.843Z,88.22
2019-01-14T18:38:20.628Z,88.09
2019-01-14T18:40:52.644Z,88.08
2019-01-14T18:43:25.359Z,88.23
2019-01-14T18:45:57.200Z,88.36
2019-01-14T18:48:29.031Z,89.00
2019-01-14T18:51:00.855Z,89.11
2019-01-14T18:53:32.617Z,89.07
2019-01-14T18:56:04.527Z,87.90
2019-01-14T18:58:36.275Z,88.44
2019-01-14T19:01:08.075Z,88.65
2019-01-14T19:03:40.048Z,87.83
2019-01-14T19:06:11.768Z,88.11
2019-01-14T19:08:43.699Z,88.50
2019-01-14T19:11:15.502Z,87.58
2019-01-14T19:13:47.258Z,87.61
2019-01-14T19:16:19.065Z,87.03
2019-01-14T19:18:51.430Z,86.90
2019-01-14T19:21:23.428Z,87.65
2019-01-14T19:23:55.156Z,87.06
2019-01-14T19:26:27.047Z,87.92
2019-01-14T19:28:58.809Z,88.03
2019-01-14T19:31:30.705Z,88.48
2019-01-14T19:34:02.693Z,88.09
2019-01-14T19:36:34.724Z,88.27
2019-01-14T19:39:09.421Z,88.92
2019-01-14T19:41:41.514Z,88.83
2019-01-14T19:44:13.339Z,88.31
2019-01-14T19:46:45.074Z,88.58
2019-01-14T19:49:17.705Z,88.30
2019-01-14T19:51:49.733Z,87.48
2019-01-14T19:54:21.635Z,87.85
2019-01-14T19:56:53.378Z,86.93
2019-01-14T19:59:25.266Z,87.31
2019-01-14T20:01:57.084Z,86.71
2019-01-14T20:04:29.158Z,86.19
2019-01-14T20:07:00.905Z,86.79
2019-01-14T20:09:32.801Z,86.63
2019-01-14T20:12:04.685Z,86.37
2019-01-14T20:14:36.449Z,86.37
2019-01-14T20:17:08.445Z,85.64
2019-01-14T20:19:40.201Z,85.83
2019-01-14T20:22:12.119Z,86.69
2019-01-14T20:24:43.957Z,86.18
2019-01-14T20:27:15.793Z,86.49
2019-01-14T20:29:47.626Z,86.26
2019-01-14T20:32:19.468Z,87.14
2019-01-14T20:34:51.289Z,86.86
2019-01-14T20:37:23.019Z,86.90
2019-01-14T20:39:54.772Z,86.69
2019-01-14T20:42:26.542Z,86.97
2019-01-14T20:44:58.453Z,86.80
2019-01-14T20:47:30.446Z,86.84
2019-01-14T20:50:02.599Z,86.65
2019-01-14T20:52:37.026Z,86.56
2019-01-14T20:55:09.960Z,86.65
2019-01-14T20:57:41.771Z,87.22
2019-01-14T21:00:18.876Z,87.05
2019-01-14T21:02:50.765Z,86.60
2019-01-14T21:05:24.958Z,86.68
2019-01-14T21:07:56.858Z,86.29
2019-01-14T21:13:07.821Z,86.34
2019-01-14T21:15:39.985Z,86.10
2019-01-14T21:18:11.806Z,85.92
2019-01-14T21:20:44.123Z,86.19
2019-01-14T21:23:15.970Z,86.69
2019-01-14T21:25:47.876Z,86.10
2019-01-14T21:28:19.692Z,86.52
2019-01-14T21:30:51.880Z,86.16
2019-01-14T21:33:23.920Z,86.13
2019-01-14T21:35:55.958Z,86.00
2019-01-14T21:38:27.705Z,86.86
2019-01-14T21:41:00.419Z,86.33
2019-01-14T21:43:32.254Z,86.99
2019-01-14T21:46:04.381Z,87.90
2019-01-14T21:48:37.473Z,87.20
2019-01-14T21:51:09.404Z,87.00
2019-01-14T21:53:41.133Z,87.23
2019-01-14T21:56:12.898Z,86.83
2019-01-14T21:58:45.604Z,87.05
2019-01-14T22:01:17.422Z,87.23
2019-01-14T22:03:49.455Z,87.57
2019-01-14T22:06:21.264Z,87.62
2019-01-14T22:08:52.993Z,87.82
2019-01-14T22:11:24.917Z,88.00
2019-01-14T22:13:56.910Z,87.85
2019-01-14T22:16:28.953Z,87.81
2019-01-14T22:19:00.831Z,87.58
2019-01-14T22:21:32.586Z,87.89
2019-01-14T22:24:04.406Z,87.94
2019-01-14T22:26:36.164Z,88.36
2019-01-14T22:29:08.226Z,87.57
2019-01-14T22:31:40.225Z,87.42
2019-01-14T22:34:12.044Z,87.35
2019-01-14T22:36:44.040Z,87.92
2019-01-14T22:39:15.849Z,87.34
2019-01-14T22:41:47.730Z,87.40
2019-01-14T22:44:19.554Z,87.06
2019-01-14T22:46:51.607Z,87.49
2019-01-14T22:49:23.339Z,87.32
2019-01-14T22:51:55.166Z,87.39
2019-01-14T22:54:26.933Z,87.39
2019-01-14T22:56:58.719Z,87.03
2019-01-14T22:59:30.483Z,86.82
2019-01-14T23:02:02.377Z,86.80
2019-01-14T23:04:34.447Z,87.19
2019-01-14T23:07:06.337Z,87.13
2019-01-14T23:09:38.134Z,87.08
2019-01-14T23:12:10.276Z,86.80
2019-01-14T23:14:42.099Z,87.09
2019-01-14T23:17:13.910Z,86.91
2019-01-14T23:19:45.770Z,87.02
2019-01-14T23:22:17.655Z,87.35
2019-01-14T23:24:50.523Z,87.09
2019-01-14T23:27:22.384Z,87.09
2019-01-14T23:29:54.111Z,87.29
2019-01-14T23:32:26.176Z,86.57
2019-01-14T23:34:57.989Z,87.36
2019-01-14T23:37:29.888Z,87.02
2019-01-14T23:40:01.632Z,87.46
2019-01-14T23:42:33.622Z,86.84
2019-01-14T23:45:05.993Z,86.85
2019-01-14T23:47:37.893Z,87.45
2019-01-14T23:50:10.518Z,87.07
2019-01-14T23:52:42.257Z,87.10
2019-01-14T23:55:14.070Z,87.07
2019-01-14T23:57:45.831Z,86.69
